sensor_id;sensor_type;location;lat;lon;timestamp;P1;durP1;ratioP1;P2;durP2;ratioP2
79668;SDS011;69136;52.614;6.976;2023-07-20T00:00:49;3.50;;;3.20;;
79668;SDS011;69136;52.614;6.976;2023-07-20T00:03:37;4.53;;;3.65;;
79668;SDS011;69136;52.614;6.976;2023-07-20T00:06:21;3.67;;;3.17;;
79668;SDS011;69136;52.614;6.976;2023-07-20T00:09:06;4.53;;;3.30;;
79668;SDS011;69136;52.614;6.976;2023-07-20T00:11:51;3.50;;;3.13;;
79668;SDS011;69136;52.614;6.976;2023-07-20T00:14:35;4.60;;;3.03;;
79668;SDS011;69136;52.614;6.976;2023-07-20T00:17:20;3.75;;;3.20;;
79668;SDS011;69136;52.614;6.976;2023-07-20T00:20:04;3.45;;;3.15;;
79668;SDS011;69136;52.614;6.976;2023-07-20T00:22:49;4.88;;;3.58;;
79668;SDS011;69136;52.614;6.976;2023-07-20T00:25:35;5.28;;;3.38;;
79668;SDS011;69136;52.614;6.976;2023-07-20T00:28:19;4.55;;;3.85;;
79668;SDS011;69136;52.614;6.976;2023-07-20T00:31:06;5.80;;;3.33;;
79668;SDS011;69136;52.614;6.976;2023-07-20T00:33:50;5.32;;;3.50;;
79668;SDS011;69136;52.614;6.976;2023-07-20T00:36:34;5.35;;;4.38;;
79668;SDS011;69136;52.614;6.976;2023-07-20T00:39:20;3.80;;;2.88;;
79668;SDS011;69136;52.614;6.976;2023-07-20T00:42:04;5.47;;;3.78;;
79668;SDS011;69136;52.614;6.976;2023-07-20T00:44:48;3.85;;;3.10;;
79668;SDS011;69136;52.614;6.976;2023-07-20T00:47:32;4.47;;;3.15;;
79668;SDS011;69136;52.614;6.976;2023-07-20T00:50:16;3.13;;;2.83;;
79668;SDS011;69136;52.614;6.976;2023-07-20T00:53:00;3.83;;;3.20;;
79668;SDS011;69136;52.614;6.976;2023-07-20T00:55:50;5.07;;;3.50;;
79668;SDS011;69136;52.614;6.976;2023-07-20T00:58:34;6.15;;;3.22;;
79668;SDS011;69136;52.614;6.976;2023-07-20T01:01:19;4.40;;;3.65;;
79668;SDS011;69136;52.614;6.976;2023-07-20T01:04:05;11.75;;;3.97;;
79668;SDS011;69136;52.614;6.976;2023-07-20T01:06:53;4.35;;;2.92;;
79668;SDS011;69136;52.614;6.976;2023-07-20T01:12:55;4.35;;;3.45;;
79668;SDS011;69136;52.614;6.976;2023-07-20T01:15:40;4.22;;;2.92;;
79668;SDS011;69136;52.614;6.976;2023-07-20T01:18:24;3.60;;;3.00;;
79668;SDS011;69136;52.614;6.976;2023-07-20T01:21:13;4.10;;;3.10;;
79668;SDS011;69136;52.614;6.976;2023-07-20T01:27:35;3.50;;;3.20;;
79668;SDS011;69136;52.614;6.976;2023-07-20T01:30:52;3.08;;;2.78;;
79668;SDS011;69136;52.614;6.976;2023-07-20T01:33:43;3.08;;;2.47;;
79668;SDS011;69136;52.614;6.976;2023-07-20T01:36:30;4.43;;;2.20;;
79668;SDS011;69136;52.614;6.976;2023-07-20T01:39:18;4.13;;;2.30;;
79668;SDS011;69136;52.614;6.976;2023-07-20T01:42:03;2.42;;;2.20;;
79668;SDS011;69136;52.614;6.976;2023-07-20T01:44:47;3.47;;;2.65;;
79668;SDS011;69136;52.614;6.976;2023-07-20T01:47:32;2.67;;;2.30;;
79668;SDS011;69136;52.614;6.976;2023-07-20T01:50:16;3.53;;;2.47;;
79668;SDS011;69136;52.614;6.976;2023-07-20T01:53:00;2.65;;;2.38;;
79668;SDS011;69136;52.614;6.976;2023-07-20T01:55:45;2.65;;;2.17;;
79668;SDS011;69136;52.614;6.976;2023-07-20T01:58:31;4.80;;;2.15;;
79668;SDS011;69136;52.614;6.976;2023-07-20T02:01:15;3.00;;;2.10;;
79668;SDS011;69136;52.614;6.976;2023-07-20T02:04:00;3.83;;;2.00;;
79668;SDS011;69136;52.614;6.976;2023-07-20T02:06:43;2.17;;;1.85;;
79668;SDS011;69136;52.614;6.976;2023-07-20T02:09:28;2.38;;;1.65;;
79668;SDS011;69136;52.614;6.976;2023-07-20T02:12:13;2.30;;;1.70;;
79668;SDS011;69136;52.614;6.976;2023-07-20T02:14:58;3.30;;;2.10;;
79668;SDS011;69136;52.614;6.976;2023-07-20T02:17:42;2.45;;;2.25;;
79668;SDS011;69136;52.614;6.976;2023-07-20T02:20:26;4.72;;;2.15;;
79668;SDS011;69136;52.614;6.976;2023-07-20T02:23:11;2.65;;;2.30;;
79668;SDS011;69136;52.614;6.976;2023-07-20T02:25:55;2.88;;;2.40;;
79668;SDS011;69136;52.614;6.976;2023-07-20T02:28:40;2.63;;;2.40;;
79668;SDS011;69136;52.614;6.976;2023-07-20T02:31:24;2.72;;;2.35;;
79668;SDS011;69136;52.614;6.976;2023-07-20T02:34:08;4.25;;;2.60;;
79668;SDS011;69136;52.614;6.976;2023-07-20T02:36:53;2.90;;;2.42;;
79668;SDS011;69136;52.614;6.976;2023-07-20T02:39:40;2.42;;;1.80;;
79668;SDS011;69136;52.614;6.976;2023-07-20T02:42:24;2.15;;;1.95;;
79668;SDS011;69136;52.614;6.976;2023-07-20T02:45:09;2.60;;;2.40;;
79668;SDS011;69136;52.614;6.976;2023-07-20T02:47:53;2.80;;;2.58;;
79668;SDS011;69136;52.614;6.976;2023-07-20T02:50:37;3.67;;;2.83;;
79668;SDS011;69136;52.614;6.976;2023-07-20T02:53:21;4.15;;;2.38;;
79668;SDS011;69136;52.614;6.976;2023-07-20T02:56:05;3.47;;;2.80;;
79668;SDS011;69136;52.614;6.976;2023-07-20T02:58:49;3.30;;;2.92;;
79668;SDS011;69136;52.614;6.976;2023-07-20T03:01:34;3.15;;;2.75;;
79668;SDS011;69136;52.614;6.976;2023-07-20T03:04:18;2.60;;;2.40;;
79668;SDS011;69136;52.614;6.976;2023-07-20T03:07:04;3.90;;;2.72;;
79668;SDS011;69136;52.614;6.976;2023-07-20T03:09:48;4.43;;;3.45;;
79668;SDS011;69136;52.614;6.976;2023-07-20T03:12:32;3.92;;;3.08;;
79668;SDS011;69136;52.614;6.976;2023-07-20T03:15:17;4.05;;;3.35;;
79668;SDS011;69136;52.614;6.976;2023-07-20T03:18:02;6.43;;;3.15;;
79668;SDS011;69136;52.614;6.976;2023-07-20T03:20:47;3.58;;;2.88;;
79668;SDS011;69136;52.614;6.976;2023-07-20T03:23:32;3.53;;;3.20;;
79668;SDS011;69136;52.614;6.976;2023-07-20T03:26:17;3.05;;;2.78;;
79668;SDS011;69136;52.614;6.976;2023-07-20T03:29:01;3.80;;;3.38;;
79668;SDS011;69136;52.614;6.976;2023-07-20T03:31:45;3.05;;;2.72;;
79668;SDS011;69136;52.614;6.976;2023-07-20T03:34:29;5.70;;;3.22;;
79668;SDS011;69136;52.614;6.976;2023-07-20T03:37:13;3.88;;;3.10;;
79668;SDS011;69136;52.614;6.976;2023-07-20T03:39:57;3.88;;;2.92;;
79668;SDS011;69136;52.614;6.976;2023-07-20T03:42:42;3.50;;;3.20;;
79668;SDS011;69136;52.614;6.976;2023-07-20T03:45:36;4.25;;;3.20;;
79668;SDS011;69136;52.614;6.976;2023-07-20T03:48:30;4.25;;;3.30;;
79668;SDS011;69136;52.614;6.976;2023-07-20T03:51:30;4.50;;;3.65;;
79668;SDS011;69136;52.614;6.976;2023-07-20T03:54:30;3.78;;;3.25;;
79668;SDS011;69136;52.614;6.976;2023-07-20T03:57:25;6.68;;;3.67;;
79668;SDS011;69136;52.614;6.976;2023-07-20T04:00:35;4.68;;;3.13;;
79668;SDS011;69136;52.614;6.976;2023-07-20T04:07:29;4.93;;;3.47;;
79668;SDS011;69136;52.614;6.976;2023-07-20T04:10:37;4.43;;;3.95;;
79668;SDS011;69136;52.614;6.976;2023-07-20T04:13:51;4.30;;;3.55;;
79668;SDS011;69136;52.614;6.976;2023-07-20T04:16:50;3.58;;;3.10;;
79668;SDS011;69136;52.614;6.976;2023-07-20T04:19:57;5.95;;;4.70;;
79668;SDS011;69136;52.614;6.976;2023-07-20T04:22:51;5.07;;;3.95;;
79668;SDS011;69136;52.614;6.976;2023-07-20T04:25:45;6.10;;;3.80;;
79668;SDS011;69136;52.614;6.976;2023-07-20T04:28:44;5.53;;;3.92;;
79668;SDS011;69136;52.614;6.976;2023-07-20T04:31:47;5.13;;;3.88;;
79668;SDS011;69136;52.614;6.976;2023-07-20T04:34:38;5.00;;;3.92;;
79668;SDS011;69136;52.614;6.976;2023-07-20T04:37:39;4.63;;;3.28;;
79668;SDS011;69136;52.614;6.976;2023-07-20T04:41:36;4.57;;;3.60;;
79668;SDS011;69136;52.614;6.976;2023-07-20T04:44:26;4.70;;;3.70;;
79668;SDS011;69136;52.614;6.976;2023-07-20T04:47:18;4.55;;;3.53;;
79668;SDS011;69136;52.614;6.976;2023-07-20T04:50:03;3.67;;;2.88;;
79668;SDS011;69136;52.614;6.976;2023-07-20T04:56:43;4.43;;;3.60;;
79668;SDS011;69136;52.614;6.976;2023-07-20T05:00:11;5.00;;;3.88;;
79668;SDS011;69136;52.614;6.976;2023-07-20T05:03:03;4.80;;;4.25;;
79668;SDS011;69136;52.614;6.976;2023-07-20T05:09:30;5.15;;;3.67;;
79668;SDS011;69136;52.614;6.976;2023-07-20T05:16:00;5.78;;;4.32;;
79668;SDS011;69136;52.614;6.976;2023-07-20T05:18:46;4.68;;;3.13;;
79668;SDS011;69136;52.614;6.976;2023-07-20T05:21:51;4.85;;;3.75;;
79668;SDS011;69136;52.614;6.976;2023-07-20T05:24:48;4.70;;;3.47;;
79668;SDS011;69136;52.614;6.976;2023-07-20T05:30:39;4.57;;;3.90;;
79668;SDS011;69136;52.614;6.976;2023-07-20T05:33:51;5.03;;;3.45;;
79668;SDS011;69136;52.614;6.976;2023-07-20T05:36:48;5.40;;;4.10;;
79668;SDS011;69136;52.614;6.976;2023-07-20T05:40:02;5.97;;;4.25;;
79668;SDS011;69136;52.614;6.976;2023-07-20T05:43:43;4.38;;;3.70;;
79668;SDS011;69136;52.614;6.976;2023-07-20T05:46:45;4.53;;;3.58;;
79668;SDS011;69136;52.614;6.976;2023-07-20T05:50:04;4.18;;;3.50;;
79668;SDS011;69136;52.614;6.976;2023-07-20T05:53:01;4.05;;;3.08;;
79668;SDS011;69136;52.614;6.976;2023-07-20T05:56:15;4.63;;;3.20;;
79668;SDS011;69136;52.614;6.976;2023-07-20T05:59:53;4.80;;;3.05;;
79668;SDS011;69136;52.614;6.976;2023-07-20T06:06:04;3.88;;;2.55;;
79668;SDS011;69136;52.614;6.976;2023-07-20T06:08:56;4.00;;;2.53;;
79668;SDS011;69136;52.614;6.976;2023-07-20T06:12:10;2.60;;;2.40;;
79668;SDS011;69136;52.614;6.976;2023-07-20T06:15:25;3.40;;;2.53;;
79668;SDS011;69136;52.614;6.976;2023-07-20T06:18:23;3.72;;;2.20;;
79668;SDS011;69136;52.614;6.976;2023-07-20T06:21:18;3.28;;;2.22;;
79668;SDS011;69136;52.614;6.976;2023-07-20T06:24:15;3.05;;;1.63;;
79668;SDS011;69136;52.614;6.976;2023-07-20T06:27:49;2.03;;;1.50;;
79668;SDS011;69136;52.614;6.976;2023-07-20T06:30:46;3.08;;;1.73;;
79668;SDS011;69136;52.614;6.976;2023-07-20T06:33:38;2.17;;;1.48;;
79668;SDS011;69136;52.614;6.976;2023-07-20T06:36:23;1.90;;;1.30;;
79668;SDS011;69136;52.614;6.976;2023-07-20T06:39:15;2.85;;;1.40;;
79668;SDS011;69136;52.614;6.976;2023-07-20T06:42:08;2.35;;;1.20;;
79668;SDS011;69136;52.614;6.976;2023-07-20T06:45:00;2.35;;;1.25;;
79668;SDS011;69136;52.614;6.976;2023-07-20T06:51:04;2.97;;;1.58;;
79668;SDS011;69136;52.614;6.976;2023-07-20T06:53:48;2.38;;;1.15;;
79668;SDS011;69136;52.614;6.976;2023-07-20T06:56:34;2.45;;;0.93;;
79668;SDS011;69136;52.614;6.976;2023-07-20T06:59:25;2.15;;;0.70;;
79668;SDS011;69136;52.614;6.976;2023-07-20T07:02:10;2.40;;;1.13;;
79668;SDS011;69136;52.614;6.976;2023-07-20T07:04:54;2.03;;;0.93;;
79668;SDS011;69136;52.614;6.976;2023-07-20T07:07:39;2.25;;;1.23;;
79668;SDS011;69136;52.614;6.976;2023-07-20T07:10:24;3.83;;;1.00;;
79668;SDS011;69136;52.614;6.976;2023-07-20T07:13:07;1.42;;;1.05;;
79668;SDS011;69136;52.614;6.976;2023-07-20T07:15:51;2.08;;;1.02;;
79668;SDS011;69136;52.614;6.976;2023-07-20T07:18:36;1.67;;;0.75;;
79668;SDS011;69136;52.614;6.976;2023-07-20T07:21:20;3.38;;;0.82;;
79668;SDS011;69136;52.614;6.976;2023-07-20T07:24:04;2.42;;;0.90;;
79668;SDS011;69136;52.614;6.976;2023-07-20T07:26:50;1.63;;;0.63;;
79668;SDS011;69136;52.614;6.976;2023-07-20T07:29:34;1.60;;;0.80;;
79668;SDS011;69136;52.614;6.976;2023-07-20T07:32:18;2.40;;;0.90;;
79668;SDS011;69136;52.614;6.976;2023-07-20T07:35:02;1.33;;;0.70;;
79668;SDS011;69136;52.614;6.976;2023-07-20T07:37:47;1.50;;;0.80;;
79668;SDS011;69136;52.614;6.976;2023-07-20T07:40:31;2.88;;;0.90;;
79668;SDS011;69136;52.614;6.976;2023-07-20T07:43:16;1.00;;;0.90;;
79668;SDS011;69136;52.614;6.976;2023-07-20T07:46:00;2.35;;;0.82;;
79668;SDS011;69136;52.614;6.976;2023-07-20T07:48:44;1.00;;;0.90;;
79668;SDS011;69136;52.614;6.976;2023-07-20T07:51:28;1.67;;;1.02;;
79668;SDS011;69136;52.614;6.976;2023-07-20T07:54:12;3.75;;;1.00;;
79668;SDS011;69136;52.614;6.976;2023-07-20T07:56:56;0.93;;;0.50;;
79668;SDS011;69136;52.614;6.976;2023-07-20T07:59:41;1.75;;;0.50;;
79668;SDS011;69136;52.614;6.976;2023-07-20T08:02:25;1.40;;;0.70;;
79668;SDS011;69136;52.614;6.976;2023-07-20T08:05:10;1.27;;;0.50;;
79668;SDS011;69136;52.614;6.976;2023-07-20T08:07:54;1.85;;;0.65;;
79668;SDS011;69136;52.614;6.976;2023-07-20T08:10:38;1.75;;;0.65;;
79668;SDS011;69136;52.614;6.976;2023-07-20T08:13:21;1.60;;;0.60;;
79668;SDS011;69136;52.614;6.976;2023-07-20T08:16:06;1.25;;;0.57;;
79668;SDS011;69136;52.614;6.976;2023-07-20T08:18:50;0.93;;;0.57;;
79668;SDS011;69136;52.614;6.976;2023-07-20T08:21:34;0.80;;;0.57;;
79668;SDS011;69136;52.614;6.976;2023-07-20T08:24:18;1.80;;;0.43;;
79668;SDS011;69136;52.614;6.976;2023-07-20T08:27:02;1.05;;;0.52;;
79668;SDS011;69136;52.614;6.976;2023-07-20T08:29:47;1.75;;;0.73;;
79668;SDS011;69136;52.614;6.976;2023-07-20T08:32:31;2.70;;;0.70;;
79668;SDS011;69136;52.614;6.976;2023-07-20T08:35:16;1.27;;;0.82;;
79668;SDS011;69136;52.614;6.976;2023-07-20T08:38:02;2.05;;;0.93;;
79668;SDS011;69136;52.614;6.976;2023-07-20T08:40:48;2.20;;;0.70;;
79668;SDS011;69136;52.614;6.976;2023-07-20T08:43:32;1.25;;;0.80;;
79668;SDS011;69136;52.614;6.976;2023-07-20T08:46:17;1.67;;;0.95;;
79668;SDS011;69136;52.614;6.976;2023-07-20T08:49:01;1.80;;;0.95;;
79668;SDS011;69136;52.614;6.976;2023-07-20T08:51:46;1.15;;;0.70;;
79668;SDS011;69136;52.614;6.976;2023-07-20T08:54:31;2.72;;;0.82;;
79668;SDS011;69136;52.614;6.976;2023-07-20T08:57:18;2.80;;;0.90;;
79668;SDS011;69136;52.614;6.976;2023-07-20T09:00:05;2.45;;;0.90;;
79668;SDS011;69136;52.614;6.976;2023-07-20T09:02:52;20.35;;;6.15;;
79668;SDS011;69136;52.614;6.976;2023-07-20T09:05:37;1.40;;;0.98;;
79668;SDS011;69136;52.614;6.976;2023-07-20T09:08:22;1.05;;;0.63;;
79668;SDS011;69136;52.614;6.976;2023-07-20T09:11:06;2.53;;;0.77;;
79668;SDS011;69136;52.614;6.976;2023-07-20T09:14:03;1.83;;;0.60;;
79668;SDS011;69136;52.614;6.976;2023-07-20T09:16:50;1.00;;;0.60;;
79668;SDS011;69136;52.614;6.976;2023-07-20T09:19:36;0.65;;;0.52;;
79668;SDS011;69136;52.614;6.976;2023-07-20T09:22:20;1.55;;;0.73;;
79668;SDS011;69136;52.614;6.976;2023-07-20T09:25:11;0.85;;;0.70;;
79668;SDS011;69136;52.614;6.976;2023-07-20T09:27:55;0.88;;;0.63;;
79668;SDS011;69136;52.614;6.976;2023-07-20T09:30:39;1.77;;;0.70;;
79668;SDS011;69136;52.614;6.976;2023-07-20T09:33:23;0.70;;;0.68;;
79668;SDS011;69136;52.614;6.976;2023-07-20T09:36:11;1.33;;;0.68;;
79668;SDS011;69136;52.614;6.976;2023-07-20T09:38:56;1.58;;;0.70;;
79668;SDS011;69136;52.614;6.976;2023-07-20T09:41:40;3.08;;;0.73;;
79668;SDS011;69136;52.614;6.976;2023-07-20T09:44:27;1.42;;;0.60;;
79668;SDS011;69136;52.614;6.976;2023-07-20T09:47:12;1.25;;;0.63;;
79668;SDS011;69136;52.614;6.976;2023-07-20T09:49:59;1.45;;;0.63;;
79668;SDS011;69136;52.614;6.976;2023-07-20T09:52:44;1.50;;;0.80;;
79668;SDS011;69136;52.614;6.976;2023-07-20T09:55:28;3.63;;;0.60;;
79668;SDS011;69136;52.614;6.976;2023-07-20T09:58:13;1.25;;;0.63;;
79668;SDS011;69136;52.614;6.976;2023-07-20T10:00:57;1.35;;;0.93;;
79668;SDS011;69136;52.614;6.976;2023-07-20T10:03:44;2.45;;;0.88;;
79668;SDS011;69136;52.614;6.976;2023-07-20T10:06:29;0.98;;;0.60;;
79668;SDS011;69136;52.614;6.976;2023-07-20T10:09:15;1.73;;;0.63;;
79668;SDS011;69136;52.614;6.976;2023-07-20T10:11:59;1.00;;;0.50;;
79668;SDS011;69136;52.614;6.976;2023-07-20T10:14:45;0.80;;;0.60;;
79668;SDS011;69136;52.614;6.976;2023-07-20T10:17:37;2.25;;;0.60;;
79668;SDS011;69136;52.614;6.976;2023-07-20T10:20:44;1.23;;;0.60;;
79668;SDS011;69136;52.614;6.976;2023-07-20T10:23:28;1.13;;;0.63;;
79668;SDS011;69136;52.614;6.976;2023-07-20T10:26:14;3.30;;;0.70;;
79668;SDS011;69136;52.614;6.976;2023-07-20T10:28:58;3.03;;;0.70;;
79668;SDS011;69136;52.614;6.976;2023-07-20T10:31:43;1.88;;;0.95;;
79668;SDS011;69136;52.614;6.976;2023-07-20T10:34:28;2.60;;;0.65;;
79668;SDS011;69136;52.614;6.976;2023-07-20T10:40:33;1.23;;;0.80;;
79668;SDS011;69136;52.614;6.976;2023-07-20T10:43:25;0.82;;;0.77;;
79668;SDS011;69136;52.614;6.976;2023-07-20T10:46:33;1.95;;;0.90;;
79668;SDS011;69136;52.614;6.976;2023-07-20T10:49:30;1.15;;;0.70;;
79668;SDS011;69136;52.614;6.976;2023-07-20T10:52:17;2.05;;;0.80;;
79668;SDS011;69136;52.614;6.976;2023-07-20T10:55:14;1.48;;;0.70;;
79668;SDS011;69136;52.614;6.976;2023-07-20T10:58:13;1.65;;;0.80;;
79668;SDS011;69136;52.614;6.976;2023-07-20T11:01:01;1.50;;;0.60;;
79668;SDS011;69136;52.614;6.976;2023-07-20T11:03:51;1.75;;;0.68;;
79668;SDS011;69136;52.614;6.976;2023-07-20T11:06:58;4.10;;;0.93;;
79668;SDS011;69136;52.614;6.976;2023-07-20T11:10:30;2.28;;;0.93;;
79668;SDS011;69136;52.614;6.976;2023-07-20T11:13:18;11.77;;;1.13;;
79668;SDS011;69136;52.614;6.976;2023-07-20T11:19:17;2.17;;;0.70;;
79668;SDS011;69136;52.614;6.976;2023-07-20T11:22:01;2.35;;;1.15;;
79668;SDS011;69136;52.614;6.976;2023-07-20T11:27:43;1.63;;;1.10;;
79668;SDS011;69136;52.614;6.976;2023-07-20T11:30:32;3.97;;;1.77;;
79668;SDS011;69136;52.614;6.976;2023-07-20T11:33:17;1.77;;;1.30;;
79668;SDS011;69136;52.614;6.976;2023-07-20T11:36:01;2.67;;;1.35;;
79668;SDS011;69136;52.614;6.976;2023-07-20T11:38:45;2.25;;;1.67;;
79668;SDS011;69136;52.614;6.976;2023-07-20T11:41:30;1.90;;;1.67;;
79668;SDS011;69136;52.614;6.976;2023-07-20T11:44:21;1.83;;;1.45;;
79668;SDS011;69136;52.614;6.976;2023-07-20T11:47:13;2.38;;;1.60;;
79668;SDS011;69136;52.614;6.976;2023-07-20T11:50:02;4.57;;;2.08;;
79668;SDS011;69136;52.614;6.976;2023-07-20T11:55:59;2.60;;;1.50;;
79668;SDS011;69136;52.614;6.976;2023-07-20T11:58:59;2.95;;;1.25;;
79668;SDS011;69136;52.614;6.976;2023-07-20T12:02:03;2.65;;;1.63;;
79668;SDS011;69136;52.614;6.976;2023-07-20T12:05:24;2.70;;;1.38;;
79668;SDS011;69136;52.614;6.976;2023-07-20T12:08:26;1.55;;;1.20;;
79668;SDS011;69136;52.614;6.976;2023-07-20T12:11:30;1.95;;;1.20;;
79668;SDS011;69136;52.614;6.976;2023-07-20T12:14:31;1.65;;;1.30;;
79668;SDS011;69136;52.614;6.976;2023-07-20T12:17:32;1.90;;;1.70;;
79668;SDS011;69136;52.614;6.976;2023-07-20T12:20:30;2.88;;;1.60;;
79668;SDS011;69136;52.614;6.976;2023-07-20T12:23:26;4.15;;;1.30;;
79668;SDS011;69136;52.614;6.976;2023-07-20T12:26:18;1.30;;;1.17;;
79668;SDS011;69136;52.614;6.976;2023-07-20T12:29:06;1.35;;;1.25;;
79668;SDS011;69136;52.614;6.976;2023-07-20T12:31:58;3.05;;;1.52;;
79668;SDS011;69136;52.614;6.976;2023-07-20T12:34:49;1.48;;;1.15;;
79668;SDS011;69136;52.614;6.976;2023-07-20T12:37:42;1.50;;;1.05;;
79668;SDS011;69136;52.614;6.976;2023-07-20T12:40:36;1.30;;;1.20;;
79668;SDS011;69136;52.614;6.976;2023-07-20T12:43:21;2.70;;;1.50;;
79668;SDS011;69136;52.614;6.976;2023-07-20T12:46:06;0.80;;;0.70;;
79668;SDS011;69136;52.614;6.976;2023-07-20T12:48:50;1.83;;;0.80;;
79668;SDS011;69136;52.614;6.976;2023-07-20T12:51:37;1.75;;;1.10;;
79668;SDS011;69136;52.614;6.976;2023-07-20T12:54:21;2.70;;;1.10;;
79668;SDS011;69136;52.614;6.976;2023-07-20T12:57:06;2.17;;;0.70;;
79668;SDS011;69136;52.614;6.976;2023-07-20T12:59:50;2.28;;;0.75;;
79668;SDS011;69136;52.614;6.976;2023-07-20T13:02:34;1.52;;;0.75;;
79668;SDS011;69136;52.614;6.976;2023-07-20T13:05:19;1.33;;;0.60;;
79668;SDS011;69136;52.614;6.976;2023-07-20T13:08:03;1.08;;;0.73;;
79668;SDS011;69136;52.614;6.976;2023-07-20T13:10:49;1.08;;;0.57;;
79668;SDS011;69136;52.614;6.976;2023-07-20T13:13:33;3.03;;;1.05;;
79668;SDS011;69136;52.614;6.976;2023-07-20T13:16:17;0.75;;;0.75;;
79668;SDS011;69136;52.614;6.976;2023-07-20T13:19:01;0.60;;;0.50;;
79668;SDS011;69136;52.614;6.976;2023-07-20T13:21:46;0.80;;;0.55;;
79668;SDS011;69136;52.614;6.976;2023-07-20T13:24:30;1.48;;;0.77;;
79668;SDS011;69136;52.614;6.976;2023-07-20T13:27:14;0.65;;;0.60;;
79668;SDS011;69136;52.614;6.976;2023-07-20T13:29:59;2.20;;;0.75;;
79668;SDS011;69136;52.614;6.976;2023-07-20T13:32:44;1.83;;;0.57;;
79668;SDS011;69136;52.614;6.976;2023-07-20T13:35:28;0.70;;;0.60;;
79668;SDS011;69136;52.614;6.976;2023-07-20T13:38:12;1.65;;;0.50;;
79668;SDS011;69136;52.614;6.976;2023-07-20T13:40:56;0.95;;;0.50;;
79668;SDS011;69136;52.614;6.976;2023-07-20T13:43:41;0.52;;;0.52;;
79668;SDS011;69136;52.614;6.976;2023-07-20T13:46:25;1.20;;;0.40;;
79668;SDS011;69136;52.614;6.976;2023-07-20T13:49:09;2.10;;;1.05;;
79668;SDS011;69136;52.614;6.976;2023-07-20T13:51:53;1.20;;;0.50;;
79668;SDS011;69136;52.614;6.976;2023-07-20T13:54:37;1.65;;;0.43;;
79668;SDS011;69136;52.614;6.976;2023-07-20T13:57:21;1.80;;;0.65;;
79668;SDS011;69136;52.614;6.976;2023-07-20T14:00:05;1.33;;;0.60;;
79668;SDS011;69136;52.614;6.976;2023-07-20T14:02:59;1.27;;;0.60;;
79668;SDS011;69136;52.614;6.976;2023-07-20T14:05:43;0.60;;;0.52;;
79668;SDS011;69136;52.614;6.976;2023-07-20T14:08:27;0.77;;;0.50;;
79668;SDS011;69136;52.614;6.976;2023-07-20T14:11:13;0.73;;;0.57;;
79668;SDS011;69136;52.614;6.976;2023-07-20T14:13:58;0.60;;;0.60;;
79668;SDS011;69136;52.614;6.976;2023-07-20T14:16:42;0.88;;;0.50;;
79668;SDS011;69136;52.614;6.976;2023-07-20T14:19:26;1.33;;;0.68;;
79668;SDS011;69136;52.614;6.976;2023-07-20T14:22:10;1.40;;;0.55;;
79668;SDS011;69136;52.614;6.976;2023-07-20T14:24:54;2.85;;;0.80;;
79668;SDS011;69136;52.614;6.976;2023-07-20T14:27:39;1.17;;;0.40;;
79668;SDS011;69136;52.614;6.976;2023-07-20T14:30:23;0.93;;;0.63;;
79668;SDS011;69136;52.614;6.976;2023-07-20T14:33:07;1.35;;;0.60;;
79668;SDS011;69136;52.614;6.976;2023-07-20T14:35:51;2.65;;;0.60;;
79668;SDS011;69136;52.614;6.976;2023-07-20T14:38:35;1.35;;;0.52;;
79668;SDS011;69136;52.614;6.976;2023-07-20T14:41:19;1.35;;;0.65;;
79668;SDS011;69136;52.614;6.976;2023-07-20T14:44:04;0.50;;;0.50;;
79668;SDS011;69136;52.614;6.976;2023-07-20T14:46:49;1.30;;;0.50;;
79668;SDS011;69136;52.614;6.976;2023-07-20T14:49:33;0.52;;;0.50;;
79668;SDS011;69136;52.614;6.976;2023-07-20T14:52:16;3.00;;;0.90;;
79668;SDS011;69136;52.614;6.976;2023-07-20T14:55:01;0.85;;;0.60;;
79668;SDS011;69136;52.614;6.976;2023-07-20T14:57:45;2.03;;;0.88;;
79668;SDS011;69136;52.614;6.976;2023-07-20T15:00:30;1.00;;;0.70;;
79668;SDS011;69136;52.614;6.976;2023-07-20T15:03:14;1.05;;;0.60;;
79668;SDS011;69136;52.614;6.976;2023-07-20T15:05:58;7.95;;;3.10;;
79668;SDS011;69136;52.614;6.976;2023-07-20T15:08:42;1.02;;;0.65;;
79668;SDS011;69136;52.614;6.976;2023-07-20T15:11:26;0.65;;;0.55;;
79668;SDS011;69136;52.614;6.976;2023-07-20T15:14:10;2.28;;;1.00;;
79668;SDS011;69136;52.614;6.976;2023-07-20T15:16:54;1.60;;;0.60;;
79668;SDS011;69136;52.614;6.976;2023-07-20T15:19:38;1.08;;;0.98;;
79668;SDS011;69136;52.614;6.976;2023-07-20T15:22:22;1.55;;;0.90;;
79668;SDS011;69136;52.614;6.976;2023-07-20T15:25:07;2.55;;;0.85;;
79668;SDS011;69136;52.614;6.976;2023-07-20T15:27:52;1.23;;;0.73;;
79668;SDS011;69136;52.614;6.976;2023-07-20T15:30:36;1.50;;;0.65;;
79668;SDS011;69136;52.614;6.976;2023-07-20T15:33:20;0.90;;;0.70;;
79668;SDS011;69136;52.614;6.976;2023-07-20T15:36:04;1.73;;;1.00;;
79668;SDS011;69136;52.614;6.976;2023-07-20T15:38:49;1.65;;;1.05;;
79668;SDS011;69136;52.614;6.976;2023-07-20T15:41:33;1.40;;;0.85;;
79668;SDS011;69136;52.614;6.976;2023-07-20T15:44:19;2.22;;;1.02;;
79668;SDS011;69136;52.614;6.976;2023-07-20T15:47:03;1.70;;;1.13;;
79668;SDS011;69136;52.614;6.976;2023-07-20T15:49:50;3.88;;;1.58;;
79668;SDS011;69136;52.614;6.976;2023-07-20T15:52:42;2.00;;;0.93;;
79668;SDS011;69136;52.614;6.976;2023-07-20T15:55:27;2.33;;;1.10;;
79668;SDS011;69136;52.614;6.976;2023-07-20T15:58:18;2.53;;;1.15;;
79668;SDS011;69136;52.614;6.976;2023-07-20T16:01:22;1.75;;;1.08;;
79668;SDS011;69136;52.614;6.976;2023-07-20T16:07:23;2.35;;;1.20;;
79668;SDS011;69136;52.614;6.976;2023-07-20T16:10:14;3.20;;;1.05;;
79668;SDS011;69136;52.614;6.976;2023-07-20T16:13:01;2.38;;;1.33;;
79668;SDS011;69136;52.614;6.976;2023-07-20T16:15:49;3.38;;;0.95;;
79668;SDS011;69136;52.614;6.976;2023-07-20T16:18:34;2.67;;;1.00;;
79668;SDS011;69136;52.614;6.976;2023-07-20T16:21:21;3.22;;;1.10;;
79668;SDS011;69136;52.614;6.976;2023-07-20T16:24:13;1.77;;;1.15;;
79668;SDS011;69136;52.614;6.976;2023-07-20T16:27:05;1.85;;;0.93;;
79668;SDS011;69136;52.614;6.976;2023-07-20T16:29:52;1.77;;;1.02;;
79668;SDS011;69136;52.614;6.976;2023-07-20T16:32:45;6.10;;;1.23;;
79668;SDS011;69136;52.614;6.976;2023-07-20T16:35:38;3.78;;;1.20;;
79668;SDS011;69136;52.614;6.976;2023-07-20T16:38:34;1.70;;;0.80;;
79668;SDS011;69136;52.614;6.976;2023-07-20T16:41:17;2.60;;;1.10;;
79668;SDS011;69136;52.614;6.976;2023-07-20T16:44:01;4.00;;;1.13;;
79668;SDS011;69136;52.614;6.976;2023-07-20T16:46:56;1.13;;;0.82;;
79668;SDS011;69136;52.614;6.976;2023-07-20T16:49:44;2.40;;;0.98;;
79668;SDS011;69136;52.614;6.976;2023-07-20T16:52:28;2.53;;;1.00;;
79668;SDS011;69136;52.614;6.976;2023-07-20T16:55:13;1.35;;;1.00;;
79668;SDS011;69136;52.614;6.976;2023-07-20T16:57:57;1.42;;;1.00;;
79668;SDS011;69136;52.614;6.976;2023-07-20T17:00:49;3.17;;;1.02;;
79668;SDS011;69136;52.614;6.976;2023-07-20T17:03:33;3.90;;;1.38;;
79668;SDS011;69136;52.614;6.976;2023-07-20T17:06:23;2.22;;;0.90;;
79668;SDS011;69136;52.614;6.976;2023-07-20T17:09:10;1.20;;;0.80;;
79668;SDS011;69136;52.614;6.976;2023-07-20T17:11:54;2.05;;;1.17;;
79668;SDS011;69136;52.614;6.976;2023-07-20T17:14:41;2.33;;;1.02;;
79668;SDS011;69136;52.614;6.976;2023-07-20T17:17:26;1.90;;;1.00;;
79668;SDS011;69136;52.614;6.976;2023-07-20T17:20:10;1.25;;;0.90;;
79668;SDS011;69136;52.614;6.976;2023-07-20T17:22:55;1.70;;;0.88;;
79668;SDS011;69136;52.614;6.976;2023-07-20T17:25:48;2.67;;;0.95;;
79668;SDS011;69136;52.614;6.976;2023-07-20T17:28:38;1.63;;;1.17;;
79668;SDS011;69136;52.614;6.976;2023-07-20T17:31:31;3.35;;;1.20;;
79668;SDS011;69136;52.614;6.976;2023-07-20T17:34:26;2.40;;;1.30;;
79668;SDS011;69136;52.614;6.976;2023-07-20T17:37:12;3.28;;;1.10;;
79668;SDS011;69136;52.614;6.976;2023-07-20T17:40:07;2.55;;;1.17;;
79668;SDS011;69136;52.614;6.976;2023-07-20T17:42:54;6.10;;;1.42;;
79668;SDS011;69136;52.614;6.976;2023-07-20T17:45:40;3.90;;;1.20;;